Island Lookout — WDF6311 — position and weather

sailwx.info

Track history (hours):
 
Tides and Currents Weather Stations Pressure Air Temp Water Temp Dewpoint Dewpoint Depression Visibility Wind Speed Wind Dir Waves Ship Positions

Island Lookout

Owner: Stevens Towing Company Inc., Yonges Island, SC. More information available from US FCC via Universal Licensing System and Coast Guard Vessel Documentation Center.

Last reported at 2015-Aug-03 19:21 UTC. Time now 2015-Aug-03 23:26 UTC.
Position N 38°08' W 076°16'.

Length 22 m; draft 2.9 m.

Type: Towing. MMSI: 367472930.

Date/timePositionNaut miles runAvg speedWind from/ knotsBaromVisibWave heightAir tempDewpointWater temp
2015-Aug-03 19:21N 38°08' W 076°16'90 5.7
2015-Aug-03 03:29N 36°38' W 076°03'  
2015-Jul-28 01:22N 34°59' W 076°41'5 6.2
2015-Jul-28 00:33N 34°54' W 076°40'7 7.2
2015-Jul-27 23:33N 34°47' W 076°41'4 4.3
2015-Jul-27 22:33N 34°43' W 076°41'5 0.5
2015-Jul-27 11:33N 34°48' W 076°41'0 0.0
2015-Jul-27 10:33N 34°48' W 076°41'0 0.0
2015-Jul-27 09:33N 34°48' W 076°41'0 0.0
2015-Jul-27 08:33N 34°48' W 076°41'0 0.0
2015-Jul-27 07:33N 34°48' W 076°41'0 0.0
2015-Jul-27 06:33N 34°48' W 076°41'0 0.0
2015-Jul-27 05:33N 34°48' W 076°41'5 5.1
2015-Jul-27 04:33N 34°43' W 076°42'0 0.3
2015-Jul-27 03:33N 34°43' W 076°42'0 0.3
2015-Jul-27 02:33N 34°43' W 076°42'0 0.1
2015-Jul-27 01:33N 34°43' W 076°42'0 0.0
2015-Jul-26 13:30N 34°43' W 076°42'0 0.0
2015-Jul-26 12:33N 34°43' W 076°42'0 0.0
2015-Jul-26 11:33N 34°43' W 076°42'0 0.0
2015-Jul-26 10:33N 34°43' W 076°42'0 0.0
2015-Jul-26 09:33N 34°43' W 076°42'0 0.2
2015-Jul-26 08:33N 34°43' W 076°42'0 0.2
2015-Jul-26 07:33N 34°43' W 076°42'0 0.0
2015-Jul-26 06:33N 34°43' W 076°42'0 0.0
2015-Jul-26 05:33N 34°43' W 076°42'0 0.0
2015-Jul-26 04:33N 34°43' W 076°42'0 0.0
2015-Jul-26 03:33N 34°43' W 076°42'0 0.0
2015-Jul-26 02:33N 34°43' W 076°42'0 0.0
2015-Jul-26 01:33N 34°43' W 076°42'0 0.0
2015-Jul-26 00:33N 34°43' W 076°42'0 0.0
2015-Jul-25 23:33N 34°43' W 076°42'0 0.0
2015-Jul-25 22:33N 34°43' W 076°42'0 0.2
2015-Jul-25 21:33N 34°43' W 076°42'0 0.0
2015-Jul-25 20:33N 34°43' W 076°42'0 0.0
2015-Jul-25 19:33N 34°43' W 076°42'0 0.0
2015-Jul-25 18:33N 34°43' W 076°42'0 0.0
2015-Jul-25 17:33N 34°43' W 076°42'0 0.0
2015-Jul-25 16:33N 34°43' W 076°42'0 0.0
2015-Jul-25 15:33N 34°43' W 076°42'0 0.0
2015-Jul-25 14:33N 34°43' W 076°42'0 0.0
2015-Jul-25 13:33N 34°43' W 076°42'0 0.0
2015-Jul-25 12:33N 34°43' W 076°42'0 0.0
2015-Jul-25 11:33N 34°43' W 076°42'0 0.0
2015-Jul-25 10:33N 34°43' W 076°42'0 0.0
2015-Jul-25 09:33N 34°43' W 076°42'0 0.0
2015-Jul-25 08:33N 34°43' W 076°42'0 0.0
2015-Jul-25 07:33N 34°43' W 076°42'0 0.0
2015-Jul-25 06:33N 34°43' W 076°42'0 0.0
2015-Jul-25 05:33N 34°43' W 076°42'0 0.0
2015-Jul-25 04:33N 34°43' W 076°42'0 0.0
2015-Jul-25 03:33N 34°43' W 076°42'0 0.2
2015-Jul-25 02:33N 34°43' W 076°42'5 5.2
2015-Jul-25 01:33N 34°48' W 076°41'7 7.2
2015-Jul-25 00:33N 34°55' W 076°40'  
Track history (hours):
 
Tides and Currents Weather Stations Pressure Air Temp Water Temp Dewpoint Dewpoint Depression Visibility Wind Speed Wind Dir Waves Ship Positions

Island Lookout

Owner: Stevens Towing Company Inc., Yonges Island, SC. More information available from US FCC via Universal Licensing System and Coast Guard Vessel Documentation Center.

Last reported at 2015-Aug-03 19:21 UTC. Time now 2015-Aug-03 23:26 UTC.
Position N 38°08' W 076°16'.

Length 22 m; draft 2.9 m.

Type: Towing. MMSI: 367472930.

Date/timePositionNaut miles runAvg speedWind from/ knotsBaromVisibWave heightAir tempDewpointWater temp
2015-Aug-03 19:21N 38°08' W 076°16'90 5.7
2015-Aug-03 03:29N 36°38' W 076°03'  
2015-Jul-28 01:22N 34°59' W 076°41'5 6.2
2015-Jul-28 00:33N 34°54' W 076°40'7 7.2
2015-Jul-27 23:33N 34°47' W 076°41'4 4.3
2015-Jul-27 22:33N 34°43' W 076°41'5 0.5
2015-Jul-27 11:33N 34°48' W 076°41'0 0.0
2015-Jul-27 10:33N 34°48' W 076°41'0 0.0
2015-Jul-27 09:33N 34°48' W 076°41'0 0.0
2015-Jul-27 08:33N 34°48' W 076°41'0 0.0
2015-Jul-27 07:33N 34°48' W 076°41'0 0.0
2015-Jul-27 06:33N 34°48' W 076°41'0 0.0
2015-Jul-27 05:33N 34°48' W 076°41'5 5.1
2015-Jul-27 04:33N 34°43' W 076°42'0 0.3
2015-Jul-27 03:33N 34°43' W 076°42'0 0.3
2015-Jul-27 02:33N 34°43' W 076°42'0 0.1
2015-Jul-27 01:33N 34°43' W 076°42'0 0.0
2015-Jul-26 13:30N 34°43' W 076°42'0 0.0
2015-Jul-26 12:33N 34°43' W 076°42'0 0.0
2015-Jul-26 11:33N 34°43' W 076°42'0 0.0
2015-Jul-26 10:33N 34°43' W 076°42'0 0.0
2015-Jul-26 09:33N 34°43' W 076°42'0 0.2
2015-Jul-26 08:33N 34°43' W 076°42'0 0.2
2015-Jul-26 07:33N 34°43' W 076°42'0 0.0
2015-Jul-26 06:33N 34°43' W 076°42'0 0.0
2015-Jul-26 05:33N 34°43' W 076°42'0 0.0
2015-Jul-26 04:33N 34°43' W 076°42'0 0.0
2015-Jul-26 03:33N 34°43' W 076°42'0 0.0
2015-Jul-26 02:33N 34°43' W 076°42'0 0.0
2015-Jul-26 01:33N 34°43' W 076°42'0 0.0
2015-Jul-26 00:33N 34°43' W 076°42'0 0.0
2015-Jul-25 23:33N 34°43' W 076°42'0 0.0
2015-Jul-25 22:33N 34°43' W 076°42'0 0.2
2015-Jul-25 21:33N 34°43' W 076°42'0 0.0
2015-Jul-25 20:33N 34°43' W 076°42'0 0.0
2015-Jul-25 19:33N 34°43' W 076°42'0 0.0
2015-Jul-25 18:33N 34°43' W 076°42'0 0.0
2015-Jul-25 17:33N 34°43' W 076°42'0 0.0
2015-Jul-25 16:33N 34°43' W 076°42'0 0.0
2015-Jul-25 15:33N 34°43' W 076°42'0 0.0
2015-Jul-25 14:33N 34°43' W 076°42'0 0.0
2015-Jul-25 13:33N 34°43' W 076°42'0 0.0
2015-Jul-25 12:33N 34°43' W 076°42'0 0.0
2015-Jul-25 11:33N 34°43' W 076°42'0 0.0
2015-Jul-25 10:33N 34°43' W 076°42'0 0.0
2015-Jul-25 09:33N 34°43' W 076°42'0 0.0
2015-Jul-25 08:33N 34°43' W 076°42'0 0.0
2015-Jul-25 07:33N 34°43' W 076°42'0 0.0
2015-Jul-25 06:33N 34°43' W 076°42'0 0.0
2015-Jul-25 05:33N 34°43' W 076°42'0 0.0
2015-Jul-25 04:33N 34°43' W 076°42'0 0.0
2015-Jul-25 03:33N 34°43' W 076°42'0 0.2
2015-Jul-25 02:33N 34°43' W 076°42'5 5.2
2015-Jul-25 01:33N 34°48' W 076°41'7 7.2
2015-Jul-25 00:33N 34°55' W 076°40'  

Dump ship's entire track history